Time;durP1;ratioP1;P1;durP2;ratioP2;P2;SDS_P1;SDS_P2;PMS_P1;PMS_P2;Temp;Humidity;BMP_temperature;BMP_pressure;BME280_temperature;BME280_humidity;BME280_pressure;Samples;Min_cycle;Max_cycle;Signal;HPM_P1;HPM_P2
2022/03/07 00:01:32;;;;;;;;;;;;;;;0.36;57.90;98256.94;4917178;29;20013;-67
2022/03/07 00:03:58;;;;;;;;;;;;;;;0.41;58.14;98251.13;4916753;29;20443;-68
2022/03/07 00:06:24;;;;;;;;;;;;;;;0.43;57.38;98244.72;4916560;29;20014;-66
2022/03/07 00:08:50;;;;;;;;;;;;;;;0.41;57.58;98245.91;4917012;29;20422;-64
2022/03/07 00:11:16;;;;;;;;;;;;;;;0.42;57.35;98252.75;4915261;29;20427;-67
2022/03/07 00:13:43;;;;;;;;;;;;;;;0.33;58.00;98236.50;4916934;29;19935;-66
2022/03/07 00:16:09;;;;;;;;;;;;;;;0.38;57.39;98241.91;4916820;29;20481;-66
2022/03/07 00:18:36;;;;;;;;;;;;;;;0.42;57.15;98229.28;4914743;29;20369;-65
2022/03/07 00:21:03;;;;;;;;;;;;;;;0.47;57.23;98233.88;4915441;29;19934;-64
2022/03/07 00:23:32;;;;;;;;;;;;;;;0.43;57.50;98236.88;4915492;29;20379;-63
2022/03/07 00:25:58;;;;;;;;;;;;;;;0.45;57.44;98226.28;4899411;29;19983;-66
2022/03/07 00:28:24;;;;;;;;;;;;;;;0.51;57.52;98232.50;4899033;29;20022;-65
2022/03/07 00:30:50;;;;;;;;;;;;;;;0.56;56.91;98230.91;4916517;29;19935;-64
2022/03/07 00:33:16;;;;;;;;;;;;;;;0.60;56.89;98226.88;4916529;29;20320;-64
2022/03/07 00:35:44;;;;;;;;;;;;;;;0.55;57.10;98229.28;4899696;29;19993;-65
2022/03/07 00:38:09;;;;;;;;;;;;;;;0.56;56.85;98223.06;4914535;29;20483;-63
2022/03/07 00:40:35;;;;;;;;;;;;;;;0.60;57.30;98219.03;4914929;29;19931;-63
2022/03/07 00:43:01;;;;;;;;;;;;;;;0.63;56.83;98225.66;4868339;29;20428;-64
2022/03/07 00:45:27;;;;;;;;;;;;;;;0.61;57.10;98222.44;4914527;29;19931;-63
2022/03/07 00:47:52;;;;;;;;;;;;;;;0.63;57.15;98217.84;4915362;29;19934;-64
2022/03/07 00:50:18;;;;;;;;;;;;;;;0.56;56.77;98222.25;4898967;29;20007;-64
2022/03/07 00:52:44;;;;;;;;;;;;;;;0.44;57.35;98216.81;4899212;29;19927;-65
2022/03/07 00:55:10;;;;;;;;;;;;;;;0.40;57.25;98215.63;4914111;29;19935;-65
2022/03/07 00:57:36;;;;;;;;;;;;;;;0.37;57.72;98210.81;4915141;29;19975;-64
2022/03/07 01:00:03;;;;;;;;;;;;;;;0.41;57.75;98212.84;4914486;29;19931;-65
2022/03/07 01:02:30;;;;;;;;;;;;;;;0.41;58.41;98215.44;4899205;29;19927;-66
2022/03/07 01:04:56;;;;;;;;;;;;;;;0.44;57.23;98211.63;4914810;29;19931;-64
2022/03/07 01:07:22;;;;;;;;;;;;;;;0.47;57.14;98211.22;4914758;29;20352;-65
2022/03/07 01:09:48;;;;;;;;;;;;;;;0.51;56.85;98207.22;4915589;29;19938;-64
2022/03/07 01:12:13;;;;;;;;;;;;;;;0.51;56.97;98202.00;4915547;29;20309;-65
2022/03/07 01:14:39;;;;;;;;;;;;;;;0.44;57.37;98201.19;4915703;29;19931;-66
2022/03/07 01:17:04;;;;;;;;;;;;;;;0.43;57.23;98197.78;4914613;29;19935;-65
2022/03/07 01:19:30;;;;;;;;;;;;;;;0.47;57.90;98195.56;4913643;29;19934;-66
2022/03/07 01:21:55;;;;;;;;;;;;;;;0.50;57.70;98203.00;4914373;29;20013;-66
2022/03/07 01:24:21;;;;;;;;;;;;;;;0.44;57.77;98196.78;4914413;29;20029;-65
2022/03/07 01:26:47;;;;;;;;;;;;;;;0.45;57.24;98200.19;4914373;29;19939;-66
2022/03/07 01:29:13;;;;;;;;;;;;;;;0.47;57.71;98194.78;4915588;29;19927;-67
2022/03/07 01:31:39;;;;;;;;;;;;;;;0.53;57.41;98197.41;4898648;29;19931;-64
2022/03/07 01:34:04;;;;;;;;;;;;;;;0.53;57.63;98196.56;4915588;29;19927;-65
2022/03/07 01:36:30;;;;;;;;;;;;;;;0.47;57.41;98200.78;4914444;29;19938;-63
2022/03/07 01:38:55;;;;;;;;;;;;;;;0.44;57.97;98199.41;4916041;29;19927;-65
2022/03/07 01:41:21;;;;;;;;;;;;;;;0.43;57.81;98200.38;4919622;29;19931;-65
2022/03/07 01:43:47;;;;;;;;;;;;;;;0.45;57.55;98197.59;4919560;29;19927;-66
2022/03/07 01:46:12;;;;;;;;;;;;;;;0.48;57.21;98199.78;4917986;29;19988;-68
2022/03/07 01:48:38;;;;;;;;;;;;;;;0.48;58.25;98202.41;4919329;29;19929;-68
2022/03/07 01:51:04;;;;;;;;;;;;;;;0.47;57.94;98202.59;4917897;29;20022;-66
2022/03/07 01:53:32;;;;;;;;;;;;;;;0.48;57.34;98197.19;4917950;29;20017;-68
2022/03/07 01:56:00;;;;;;;;;;;;;;;0.47;57.59;98197.38;4902524;29;20356;-65
2022/03/07 01:58:27;;;;;;;;;;;;;;;0.50;57.25;98200.41;4901908;29;19934;-65
2022/03/07 02:00:52;;;;;;;;;;;;;;;0.55;57.56;98205.00;4902237;29;20308;-65
2022/03/07 02:03:19;;;;;;;;;;;;;;;0.56;57.57;98204.81;4917647;29;20353;-63
2022/03/07 02:05:47;;;;;;;;;;;;;;;0.56;57.65;98202.22;4917549;29;19931;-64
2022/03/07 02:08:19;;;;;;;;;;;;;;;0.58;57.16;98202.00;4917978;29;19935;-65
2022/03/07 02:10:57;;;;;;;;;;;;;;;0.56;57.64;98204.00;4919070;29;20026;-65
2022/03/07 02:13:23;;;;;;;;;;;;;;;0.51;57.13;98207.22;4917617;29;19927;-65
2022/03/07 02:16:09;;;;;;;;;;;;;;;0.43;57.94;98205.59;4904481;29;19975;-68
2022/03/07 02:18:35;;;;;;;;;;;;;;;0.44;57.88;98204.63;4917134;29;20013;-65
2022/03/07 02:21:15;;;;;;;;;;;;;;;0.38;57.91;98204.59;4917614;29;19970;-67
2022/03/07 02:24:10;;;;;;;;;;;;;;;0.37;58.73;98211.63;4917715;29;20336;-67
2022/03/07 02:26:36;;;;;;;;;;;;;;;0.41;58.07;98205.03;4917344;29;20381;-67
2022/03/07 02:29:03;;;;;;;;;;;;;;;0.41;57.93;98201.59;4917628;29;19934;-68
2022/03/07 02:31:31;;;;;;;;;;;;;;;0.43;57.85;98208.22;4896056;29;20393;-68
2022/03/07 02:33:59;;;;;;;;;;;;;;;0.43;58.40;98210.81;4907419;29;19933;-67
2022/03/07 02:36:25;;;;;;;;;;;;;;;0.44;58.41;98209.84;4892563;29;19932;-67
2022/03/07 02:38:51;;;;;;;;;;;;;;;0.45;57.85;98213.25;4875595;29;19927;-66
2022/03/07 02:41:17;;;;;;;;;;;;;;;0.44;58.16;98206.41;4890909;29;19935;-67
2022/03/07 02:43:47;;;;;;;;;;;;;;;0.41;58.54;98215.44;4906902;29;19927;-67
2022/03/07 02:46:13;;;;;;;;;;;;;;;0.44;58.12;98215.06;4907997;29;19960;-67
2022/03/07 02:48:38;;;;;;;;;;;;;;;0.44;58.79;98209.00;4906589;29;19935;-68
2022/03/07 02:51:04;;;;;;;;;;;;;;;0.41;58.55;98214.63;4901195;29;19931;-67
2022/03/07 02:53:30;;;;;;;;;;;;;;;0.35;59.11;98203.19;4897181;29;19932;-67
2022/03/07 02:55:56;;;;;;;;;;;;;;;0.32;58.97;98208.00;4906280;29;19932;-67
2022/03/07 02:58:22;;;;;;;;;;;;;;;0.34;58.65;98216.44;4908014;29;19927;-70
2022/03/07 03:00:47;;;;;;;;;;;;;;;0.40;58.62;98218.25;4907846;29;19938;-66
2022/03/07 03:03:13;;;;;;;;;;;;;;;0.44;58.46;98219.44;4909278;29;19927;-68
2022/03/07 03:05:38;;;;;;;;;;;;;;;0.51;58.74;98216.84;4914559;29;19931;-68
2022/03/07 03:08:04;;;;;;;;;;;;;;;0.55;58.37;98218.84;4917585;29;19962;-69
2022/03/07 03:10:30;;;;;;;;;;;;;;;0.58;58.17;98217.63;4917921;29;20011;-67
2022/03/07 03:12:55;;;;;;;;;;;;;;;0.44;58.78;98212.44;4916553;29;19927;-66
2022/03/07 03:15:21;;;;;;;;;;;;;;;0.43;58.67;98213.44;4916629;29;19931;-64
2022/03/07 03:17:47;;;;;;;;;;;;;;;0.43;59.00;98216.03;4900162;29;19927;-69
2022/03/07 03:20:13;;;;;;;;;;;;;;;0.52;58.92;98214.03;4917449;29;19978;-68
2022/03/07 03:22:40;;;;;;;;;;;;;;;0.53;58.15;98205.22;4917872;29;19973;-68
2022/03/07 03:25:06;;;;;;;;;;;;;;;0.50;58.19;98212.63;4916125;29;19995;-68
2022/03/07 03:27:31;;;;;;;;;;;;;;;0.50;59.05;98212.63;4916001;29;19927;-69
2022/03/07 03:29:57;;;;;;;;;;;;;;;0.49;58.55;98206.59;4917178;29;20324;-67
2022/03/07 03:32:24;;;;;;;;;;;;;;;0.47;59.26;98200.00;4917623;29;20018;-65
2022/03/07 03:34:50;;;;;;;;;;;;;;;0.48;59.09;98204.22;4916078;29;19931;-65
2022/03/07 03:37:16;;;;;;;;;;;;;;;0.49;58.59;98204.00;4917375;29;19934;-66
2022/03/07 03:39:41;;;;;;;;;;;;;;;0.40;59.17;98202.59;4906466;29;19927;-66
2022/03/07 03:42:07;;;;;;;;;;;;;;;0.47;59.14;98200.78;4897101;29;19935;-66
2022/03/07 03:44:33;;;;;;;;;;;;;;;0.46;58.83;98204.41;4898235;29;20016;-67
2022/03/07 03:46:59;;;;;;;;;;;;;;;0.52;58.90;98208.81;4898430;29;19927;-66
2022/03/07 03:49:24;;;;;;;;;;;;;;;0.51;58.64;98203.81;4896815;29;20409;-66
2022/03/07 03:51:50;;;;;;;;;;;;;;;0.51;59.17;98207.22;4898069;29;19927;-67
2022/03/07 03:54:16;;;;;;;;;;;;;;;0.53;59.28;98202.63;4898101;29;20017;-68
2022/03/07 03:56:44;;;;;;;;;;;;;;;0.55;58.73;98213.63;4897106;29;19931;-66
2022/03/07 03:59:10;;;;;;;;;;;;;;;0.60;59.05;98213.03;4910367;29;19931;-67
2022/03/07 04:01:36;;;;;;;;;;;;;;;0.59;58.47;98209.63;4916596;29;19938;-67
2022/03/07 04:04:02;;;;;;;;;;;;;;;0.58;58.86;98210.59;4916702;29;19970;-66
2022/03/07 04:06:27;;;;;;;;;;;;;;;0.58;58.49;98218.44;4917052;29;20381;-65
2022/03/07 04:08:58;;;;;;;;;;;;;;;0.58;58.99;98218.44;4916760;29;19931;-67
2022/03/07 04:11:25;;;;;;;;;;;;;;;0.64;58.82;98216.81;4916430;29;19987;-66
2022/03/07 04:13:54;;;;;;;;;;;;;;;0.64;58.93;98211.59;4915443;29;19927;-64
2022/03/07 04:16:25;;;;;;;;;;;;;;;0.60;59.15;98220.84;4915550;29;19977;-66
2022/03/07 04:18:51;;;;;;;;;;;;;;;0.58;59.14;98217.63;4915984;29;20400;-66
2022/03/07 04:21:17;;;;;;;;;;;;;;;0.56;58.77;98217.84;4916822;29;20026;-65
2022/03/07 04:23:43;;;;;;;;;;;;;;;0.58;58.96;98212.41;4915278;29;19930;-66
2022/03/07 04:26:11;;;;;;;;;;;;;;;0.61;59.07;98215.41;4915164;29;19931;-64
2022/03/07 04:28:38;;;;;;;;;;;;;;;0.62;59.12;98205.81;4897820;29;19934;-64
2022/03/07 04:31:04;;;;;;;;;;;;;;;0.66;58.63;98207.81;4896201;29;19931;-65
2022/03/07 04:33:29;;;;;;;;;;;;;;;0.67;58.86;98214.59;4896292;29;19931;-63
2022/03/07 04:35:55;;;;;;;;;;;;;;;0.73;58.80;98209.59;4896361;29;20079;-65
2022/03/07 04:38:24;;;;;;;;;;;;;;;0.81;58.53;98210.19;4903062;29;20396;-66
2022/03/07 04:40:50;;;;;;;;;;;;;;;0.82;58.46;98216.19;4915153;29;19935;-64
2022/03/07 04:43:15;;;;;;;;;;;;;;;0.84;58.04;98207.16;4916204;29;20422;-65
2022/03/07 04:45:41;;;;;;;;;;;;;;;0.90;58.59;98206.34;4916224;29;19938;-66
2022/03/07 04:48:07;;;;;;;;;;;;;;;0.92;57.96;98211.38;4915932;29;19931;-68
2022/03/07 04:50:32;;;;;;;;;;;;;;;0.98;58.38;98209.78;4916159;29;19981;-67
2022/03/07 04:52:58;;;;;;;;;;;;;;;1.00;57.38;98211.19;4916186;29;19926;-65
2022/03/07 04:55:25;;;;;;;;;;;;;;;0.98;58.05;98210.56;4915930;29;19927;-65
2022/03/07 04:57:51;;;;;;;;;;;;;;;1.03;57.94;98213.38;4897494;29;19927;-69
2022/03/07 05:00:18;;;;;;;;;;;;;;;1.08;57.53;98215.34;4914700;29;20389;-67
2022/03/07 05:02:46;;;;;;;;;;;;;;;1.13;57.08;98218.97;4914720;29;19975;-70
2022/03/07 05:05:11;;;;;;;;;;;;;;;1.08;57.94;98217.97;4914361;29;19942;-68
2022/03/07 05:07:37;;;;;;;;;;;;;;;1.10;57.62;98215.97;4897270;29;19927;-68
2022/03/07 05:10:03;;;;;;;;;;;;;;;1.14;57.97;98211.91;4896783;29;19931;-68
2022/03/07 05:12:29;;;;;;;;;;;;;;;1.19;57.36;98211.31;4897126;29;19927;-68
2022/03/07 05:14:54;;;;;;;;;;;;;;;1.21;57.45;98211.94;4896754;29;20030;-67
2022/03/07 05:17:20;;;;;;;;;;;;;;;1.25;57.48;98215.72;4903211;29;19951;-62
2022/03/07 05:19:47;;;;;;;;;;;;;;;1.30;57.36;98215.91;4889996;29;20388;-63
2022/03/07 05:22:14;;;;;;;;;;;;;;;1.32;57.43;98219.09;4900391;29;19927;-64
2022/03/07 05:24:40;;;;;;;;;;;;;;;1.36;57.37;98217.69;4906760;29;20055;-64
2022/03/07 05:27:08;;;;;;;;;;;;;;;1.42;56.89;98213.47;4906858;29;20460;-65
2022/03/07 05:29:34;;;;;;;;;;;;;;;1.43;57.24;98209.81;4905426;29;20075;-62
2022/03/07 05:32:00;;;;;;;;;;;;;;;1.48;56.25;98215.22;4905684;29;20420;-63
2022/03/07 05:34:25;;;;;;;;;;;;;;;1.44;56.91;98214.03;4904997;29;19927;-63
2022/03/07 05:36:51;;;;;;;;;;;;;;;1.45;56.52;98218.25;4911427;29;19974;-64
2022/03/07 05:39:18;;;;;;;;;;;;;;;1.52;56.91;98219.03;4916026;29;19923;-63
2022/03/07 05:41:47;;;;;;;;;;;;;;;1.48;56.88;98218.66;4898686;29;20397;-63
2022/03/07 05:44:13;;;;;;;;;;;;;;;1.56;56.23;98220.22;4915570;29;19927;-63
2022/03/07 05:46:39;;;;;;;;;;;;;;;1.62;56.05;98213.34;4914229;29;19938;-63
2022/03/07 05:49:05;;;;;;;;;;;;;;;1.61;56.05;98217.78;4896625;29;19927;-63
2022/03/07 05:51:33;;;;;;;;;;;;;;;1.63;56.39;98225.41;4909296;29;19939;-61
2022/03/07 05:53:59;;;;;;;;;;;;;;;1.70;55.71;98220.94;4898391;29;20066;-61
2022/03/07 05:56:25;;;;;;;;;;;;;;;1.69;55.99;98225.38;4915196;29;20022;-61
2022/03/07 05:58:55;;;;;;;;;;;;;;;1.81;55.71;98212.47;4914188;29;19931;-63
2022/03/07 06:01:21;;;;;;;;;;;;;;;1.86;55.22;98217.06;4898473;29;19931;-60
2022/03/07 06:03:47;;;;;;;;;;;;;;;1.86;55.47;98220.47;4914443;29;20349;-60
2022/03/07 06:06:12;;;;;;;;;;;;;;;1.89;54.87;98220.06;4912738;29;20030;-61
2022/03/07 06:08:38;;;;;;;;;;;;;;;1.96;54.99;98222.63;4915303;29;19943;-61
2022/03/07 06:11:04;;;;;;;;;;;;;;;2.03;54.76;98221.59;4914388;29;20432;-59
2022/03/07 06:13:31;;;;;;;;;;;;;;;2.11;54.57;98227.56;4914405;29;20357;-60
2022/03/07 06:15:56;;;;;;;;;;;;;;;2.13;54.72;98226.34;4897733;29;19931;-62
2022/03/07 06:18:30;;;;;;;;;;;;;;;2.20;54.57;98229.69;4914642;29;20019;-58
2022/03/07 06:20:57;;;;;;;;;;;;;;;2.31;54.25;98232.66;4914951;29;19935;-67
2022/03/07 06:23:23;;;;;;;;;;;;;;;2.40;53.90;98234.00;4913496;29;19957;-60
2022/03/07 06:25:51;;;;;;;;;;;;;;;2.46;53.47;98236.56;4917134;29;20400;-59
2022/03/07 06:28:17;;;;;;;;;;;;;;;2.45;53.66;98240.19;4916781;29;19943;-59
2022/03/07 06:30:47;;;;;;;;;;;;;;;2.53;53.03;98238.31;4918324;29;19935;-61
2022/03/07 06:33:14;;;;;;;;;;;;;;;2.57;53.00;98244.75;4917630;29;19927;-61
2022/03/07 06:35:41;;;;;;;;;;;;;;;2.63;52.79;98241.28;4901643;29;19938;-60
2022/03/07 06:38:08;;;;;;;;;;;;;;;2.59;53.08;98246.13;4901235;29;19966;-59
2022/03/07 06:40:35;;;;;;;;;;;;;;;2.56;52.85;98248.34;4901113;29;19934;-59
2022/03/07 06:43:02;;;;;;;;;;;;;;;2.53;52.35;98248.78;4916698;29;19974;-59
2022/03/07 06:45:29;;;;;;;;;;;;;;;2.46;52.40;98247.03;4917842;29;19931;-60
2022/03/07 06:47:59;;;;;;;;;;;;;;;2.58;52.52;98252.38;4915284;29;20211;-61
2022/03/07 06:50:26;;;;;;;;;;;;;;;2.71;51.93;98246.25;4916487;29;20392;-59
2022/03/07 06:52:53;;;;;;;;;;;;;;;2.78;51.76;98252.22;4916791;29;20046;-58
2022/03/07 06:55:19;;;;;;;;;;;;;;;2.86;51.89;98243.28;4914291;29;20330;-61
2022/03/07 06:57:45;;;;;;;;;;;;;;;3.01;51.72;98253.44;4891243;29;20464;-59
2022/03/07 07:00:13;;;;;;;;;;;;;;;2.84;52.07;98253.16;4916587;29;19974;-58
2022/03/07 07:02:41;;;;;;;;;;;;;;;2.82;52.26;98249.97;4912390;29;20433;-60
2022/03/07 07:05:07;;;;;;;;;;;;;;;2.85;52.16;98254.75;4910586;29;20384;-60
2022/03/07 07:07:34;;;;;;;;;;;;;;;3.00;51.81;98251.81;4918086;29;19931;-59
2022/03/07 07:10:01;;;;;;;;;;;;;;;3.17;51.48;98252.84;4916299;29;20436;-59
2022/03/07 07:12:29;;;;;;;;;;;;;;;3.14;51.50;98245.44;4884185;29;20324;-60
2022/03/07 07:14:55;;;;;;;;;;;;;;;3.07;51.65;98248.13;4917496;29;19931;-60
2022/03/07 07:17:22;;;;;;;;;;;;;;;3.19;51.74;98250.81;4916094;29;19931;-60
2022/03/07 07:19:48;;;;;;;;;;;;;;;3.21;51.28;98245.34;4915985;29;19934;-60
2022/03/07 07:22:14;;;;;;;;;;;;;;;3.22;51.68;98249.59;4916138;29;20037;-62
2022/03/07 07:24:40;;;;;;;;;;;;;;;3.29;51.31;98245.06;4917786;29;20009;-59
2022/03/07 07:27:06;;;;;;;;;;;;;;;3.29;51.44;98250.31;4917276;29;20014;-61
2022/03/07 07:29:32;;;;;;;;;;;;;;;3.29;51.67;98251.09;4917242;29;19927;-59
2022/03/07 07:31:58;;;;;;;;;;;;;;;3.47;51.66;98258.19;4916869;29;20260;-60
2022/03/07 07:34:24;;;;;;;;;;;;;;;3.63;50.92;98254.16;4916776;29;19927;-60
2022/03/07 07:36:51;;;;;;;;;;;;;;;3.77;50.47;98255.59;4915848;29;20401;-60
2022/03/07 07:39:19;;;;;;;;;;;;;;;3.96;50.33;98256.34;4915964;29;19931;-60
2022/03/07 07:41:45;;;;;;;;;;;;;;;4.05;50.17;98252.41;4914956;29;19927;-62
2022/03/07 07:44:11;;;;;;;;;;;;;;;4.15;49.23;98246.63;4916039;29;20357;-62
2022/03/07 07:46:37;;;;;;;;;;;;;;;4.25;49.29;98244.25;4916488;29;20060;-60
2022/03/07 07:49:08;;;;;;;;;;;;;;;4.35;48.87;98251.56;4915878;29;19931;-61
2022/03/07 07:51:34;;;;;;;;;;;;;;;4.42;48.68;98249.66;4916306;29;19927;-61
2022/03/07 07:54:01;;;;;;;;;;;;;;;4.44;48.92;98254.69;4916047;29;19935;-60
2022/03/07 07:56:27;;;;;;;;;;;;;;;4.22;48.86;98249.16;4917437;29;19934;-61
2022/03/07 07:58:52;;;;;;;;;;;;;;;4.36;49.40;98255.81;4914775;29;19935;-62
2022/03/07 08:01:18;;;;;;;;;;;;;;;4.43;48.92;98250.47;4915293;29;20385;-61
2022/03/07 08:03:44;;;;;;;;;;;;;;;4.25;48.36;98244.25;4917073;29;19938;-63
2022/03/07 08:06:10;;;;;;;;;;;;;;;4.20;48.96;98257.25;4915194;29;19931;-61
2022/03/07 08:08:36;;;;;;;;;;;;;;;4.24;49.17;98252.38;4916756;29;19931;-63
2022/03/07 08:11:01;;;;;;;;;;;;;;;4.41;49.08;98249.88;4915063;29;19934;-61
2022/03/07 08:13:27;;;;;;;;;;;;;;;4.44;48.65;98249.44;4915663;29;19931;-64
2022/03/07 08:15:53;;;;;;;;;;;;;;;4.60;48.10;98246.16;4899694;29;19977;-62
2022/03/07 08:18:19;;;;;;;;;;;;;;;4.63;47.54;98244.91;4915998;29;20385;-64
2022/03/07 08:20:44;;;;;;;;;;;;;;;4.71;48.03;98240.13;4915338;29;19950;-62
2022/03/07 08:23:10;;;;;;;;;;;;;;;4.78;47.62;98238.19;4915882;29;20569;-59
2022/03/07 08:25:35;;;;;;;;;;;;;;;4.89;46.92;98236.59;4915026;29;20014;-59
2022/03/07 08:28:01;;;;;;;;;;;;;;;4.81;47.21;98242.19;4898967;29;19958;-62
2022/03/07 08:30:28;;;;;;;;;;;;;;;4.69;47.03;98236.91;4914786;29;19930;-60
2022/03/07 08:32:54;;;;;;;;;;;;;;;4.55;47.69;98246.81;4912417;29;19954;-61
2022/03/07 08:35:21;;;;;;;;;;;;;;;4.63;47.80;98240.47;4906527;29;20384;-61
2022/03/07 08:37:47;;;;;;;;;;;;;;;4.66;46.80;98244.47;4914007;29;19931;-61
2022/03/07 08:40:20;;;;;;;;;;;;;;;4.85;47.55;98248.56;4916434;29;19927;-62
2022/03/07 08:42:46;;;;;;;;;;;;;;;4.95;47.16;98246.19;4914849;29;19938;-59
2022/03/07 08:45:12;;;;;;;;;;;;;;;5.08;46.15;98244.34;4915063;29;19934;-60
2022/03/07 08:47:39;;;;;;;;;;;;;;;4.88;46.80;98237.63;4898539;29;20316;-61
2022/03/07 08:50:06;;;;;;;;;;;;;;;4.99;46.87;98239.44;4897980;29;20344;-61
2022/03/07 08:52:33;;;;;;;;;;;;;;;4.96;46.43;98241.72;4897230;29;19937;-59
2022/03/07 08:55:00;;;;;;;;;;;;;;;4.92;47.02;98233.50;4895978;29;20168;-61
2022/03/07 08:57:29;;;;;;;;;;;;;;;4.89;46.80;98241.84;4896773;29;19939;-60
2022/03/07 08:59:55;;;;;;;;;;;;;;;4.79;47.17;98238.97;4896083;29;19927;-62
2022/03/07 09:02:22;;;;;;;;;;;;;;;4.90;47.45;98222.44;4900085;29;19931;-61
2022/03/07 09:04:52;;;;;;;;;;;;;;;5.20;46.37;98243.28;4898699;29;19927;-63
2022/03/07 09:07:22;;;;;;;;;;;;;;;5.21;45.87;98236.25;4915420;29;20312;-61
2022/03/07 09:09:50;;;;;;;;;;;;;;;5.30;44.93;98239.31;4915597;29;19926;-60
2022/03/07 09:12:17;;;;;;;;;;;;;;;5.19;45.15;98238.28;4914968;29;19931;-61
2022/03/07 09:14:44;;;;;;;;;;;;;;;4.85;46.21;98245.13;4915834;29;19950;-60
2022/03/07 09:17:11;;;;;;;;;;;;;;;4.78;46.33;98235.56;4915985;29;19930;-60
2022/03/07 09:19:36;;;;;;;;;;;;;;;5.00;46.57;98237.63;4915466;29;20488;-65
2022/03/07 09:22:02;;;;;;;;;;;;;;;5.22;46.40;98241.25;4915844;29;19938;-61
2022/03/07 09:24:29;;;;;;;;;;;;;;;5.50;45.68;98239.72;4915321;29;20385;-59
2022/03/07 09:26:54;;;;;;;;;;;;;;;5.62;44.46;98239.69;4882151;29;19962;-62
2022/03/07 09:29:20;;;;;;;;;;;;;;;5.52;44.92;98242.91;4915365;29;19931;-58
2022/03/07 09:31:46;;;;;;;;;;;;;;;5.39;45.43;98237.91;4915827;29;19927;-59
2022/03/07 09:34:12;;;;;;;;;;;;;;;5.45;44.84;98237.78;4915166;29;19937;-60
2022/03/07 09:36:38;;;;;;;;;;;;;;;5.54;44.83;98240.84;4915920;29;19991;-59
2022/03/07 09:39:04;;;;;;;;;;;;;;;5.50;44.84;98234.47;4915847;29;20445;-63
2022/03/07 09:41:30;;;;;;;;;;;;;;;5.63;43.77;98236.81;4913776;29;20324;-59
2022/03/07 09:43:55;;;;;;;;;;;;;;;5.76;43.47;98240.22;4915529;29;20397;-64
2022/03/07 09:46:21;;;;;;;;;;;;;;;5.84;43.49;98235.38;4915405;29;20321;-62
2022/03/07 09:48:47;;;;;;;;;;;;;;;5.81;43.25;98241.09;4914083;29;19938;-63
2022/03/07 09:51:12;;;;;;;;;;;;;;;5.88;43.38;98241.78;4915395;29;19931;-61
2022/03/07 09:53:38;;;;;;;;;;;;;;;6.03;43.11;98236.03;4915324;29;20298;-63
2022/03/07 09:56:04;;;;;;;;;;;;;;;6.15;42.41;98238.59;4915491;29;19974;-60
2022/03/07 09:58:30;;;;;;;;;;;;;;;6.29;42.87;98233.81;4903814;29;19942;-61
2022/03/07 10:01:08;;;;;;;;;;;;;;;6.21;42.26;98235.03;4917295;29;19927;-60
2022/03/07 10:03:34;;;;;;;;;;;;;;;6.08;43.46;98238.72;4918510;29;19974;-62
2022/03/07 10:06:00;;;;;;;;;;;;;;;5.95;43.09;98238.25;4919024;29;20408;-60
2022/03/07 10:08:26;;;;;;;;;;;;;;;5.85;43.22;98237.00;4919163;29;19931;-62
2022/03/07 10:10:52;;;;;;;;;;;;;;;5.84;43.33;98235.38;4918708;29;19967;-62
2022/03/07 10:13:18;;;;;;;;;;;;;;;5.96;42.86;98239.81;4917724;29;19931;-62
2022/03/07 10:15:53;;;;;;;;;;;;;;;6.05;43.40;98236.56;4919121;29;19934;-61
2022/03/07 10:18:19;;;;;;;;;;;;;;;6.01;43.31;98232.84;4917951;29;20294;-62
2022/03/07 10:21:01;;;;;;;;;;;;;;;5.88;42.97;98236.53;4918427;29;19976;-60
2022/03/07 10:23:30;;;;;;;;;;;;;;;5.75;42.95;98236.00;4918984;29;20361;-61
2022/03/07 10:26:08;;;;;;;;;;;;;;;5.81;42.84;98238.47;4918682;29;19977;-61
2022/03/07 10:28:37;;;;;;;;;;;;;;;5.76;42.81;98235.75;4918201;29;20696;-61
2022/03/07 10:31:13;;;;;;;;;;;;;;;5.75;42.50;98236.78;4917805;29;19974;-63
2022/03/07 10:33:38;;;;;;;;;;;;;;;5.61;42.80;98236.25;4915544;29;19967;-64
2022/03/07 10:36:04;;;;;;;;;;;;;;;5.54;43.66;98237.44;4919745;29;19927;-61
2022/03/07 10:38:29;;;;;;;;;;;;;;;5.53;43.31;98241.06;4917788;29;20432;-63
2022/03/07 10:40:55;;;;;;;;;;;;;;;5.26;43.20;98248.66;4918168;29;20370;-59
2022/03/07 10:43:20;;;;;;;;;;;;;;;5.27;44.11;98245.81;4917158;29;19938;-60
2022/03/07 10:45:50;;;;;;;;;;;;;;;5.42;43.12;98238.25;4918188;29;19973;-62
2022/03/07 10:48:16;;;;;;;;;;;;;;;5.37;43.51;98238.13;4918050;29;19934;-60
2022/03/07 10:50:46;;;;;;;;;;;;;;;5.46;43.28;98235.94;4916860;29;20035;-61
2022/03/07 10:53:12;;;;;;;;;;;;;;;5.53;42.71;98241.91;4917304;29;19971;-61
2022/03/07 10:55:40;;;;;;;;;;;;;;;5.37;42.92;98232.09;4916807;29;19968;-61
2022/03/07 10:58:13;;;;;;;;;;;;;;;5.30;43.87;98234.06;4916527;29;19938;-60
2022/03/07 11:00:47;;;;;;;;;;;;;;;5.34;43.78;98237.81;4916459;29;19986;-60
2022/03/07 11:03:17;;;;;;;;;;;;;;;5.37;42.81;98234.72;4885253;29;20391;-59
2022/03/07 11:05:45;;;;;;;;;;;;;;;5.39;43.89;98235.28;4916612;29;19931;-59
2022/03/07 11:08:10;;;;;;;;;;;;;;;5.43;43.46;98241.66;4900136;29;20041;-60
2022/03/07 11:10:37;;;;;;;;;;;;;;;5.30;43.08;98240.09;4917488;29;20018;-61
2022/03/07 11:13:03;;;;;;;;;;;;;;;5.27;43.32;98242.41;4917279;29;19971;-61
2022/03/07 11:15:29;;;;;;;;;;;;;;;5.18;43.15;98241.94;4899983;29;19981;-63
2022/03/07 11:17:56;;;;;;;;;;;;;;;5.09;42.55;98244.13;4885379;29;20612;-64
2022/03/07 11:20:22;;;;;;;;;;;;;;;5.05;42.57;98250.84;4916644;29;19965;-63
2022/03/07 11:22:48;;;;;;;;;;;;;;;5.10;42.98;98245.72;4904055;29;19994;-64
2022/03/07 11:25:18;;;;;;;;;;;;;;;5.00;44.15;98242.88;4897503;29;20022;-63
2022/03/07 11:27:44;;;;;;;;;;;;;;;5.07;44.16;98248.81;4866282;29;19931;-64
2022/03/07 11:30:13;;;;;;;;;;;;;;;5.14;43.63;98248.69;4898933;29;20348;-62
2022/03/07 11:32:40;;;;;;;;;;;;;;;5.20;43.67;98250.38;4897226;29;20038;-63
2022/03/07 11:35:15;;;;;;;;;;;;;;;5.29;43.47;98253.47;4912293;29;20365;-62
2022/03/07 11:37:51;;;;;;;;;;;;;;;5.18;43.71;98247.22;4916455;29;20324;-62
2022/03/07 11:40:18;;;;;;;;;;;;;;;5.11;43.04;98257.81;4917408;29;19927;-59
2022/03/07 11:42:55;;;;;;;;;;;;;;;4.97;44.53;98261.69;4916436;29;19923;-62
2022/03/07 11:45:22;;;;;;;;;;;;;;;4.90;44.75;98255.78;4899225;29;19927;-62
2022/03/07 11:47:49;;;;;;;;;;;;;;;4.61;44.64;98258.25;4915849;29;19931;-59
2022/03/07 11:50:18;;;;;;;;;;;;;;;4.26;45.20;98258.97;4917087;29;20082;-60
2022/03/07 11:52:44;;;;;;;;;;;;;;;4.21;45.46;98256.22;4916901;29;19931;-60
2022/03/07 11:55:14;;;;;;;;;;;;;;;4.32;45.26;98265.97;4915844;29;19938;-60
2022/03/07 11:57:41;;;;;;;;;;;;;;;4.21;45.54;98268.56;4915904;29;20324;-61
2022/03/07 12:00:14;;;;;;;;;;;;;;;4.15;45.19;98264.19;4915232;29;20003;-58
2022/03/07 12:02:40;;;;;;;;;;;;;;;4.09;45.33;98264.06;4899658;29;19931;-60
2022/03/07 12:05:07;;;;;;;;;;;;;;;4.17;44.63;98267.38;4916959;29;19927;-60
2022/03/07 12:07:32;;;;;;;;;;;;;;;4.10;45.55;98272.72;4915697;29;20030;-60
2022/03/07 12:10:05;;;;;;;;;;;;;;;3.91;45.64;98269.31;4916679;29;19988;-60
2022/03/07 12:12:31;;;;;;;;;;;;;;;3.82;46.11;98266.25;4916637;29;19942;-60
2022/03/07 12:14:56;;;;;;;;;;;;;;;3.75;46.61;98265.50;4916660;29;19927;-61
2022/03/07 12:17:23;;;;;;;;;;;;;;;3.87;46.42;98261.09;4915276;29;19931;-59
2022/03/07 12:19:56;;;;;;;;;;;;;;;3.90;46.41;98266.94;4916169;29;19927;-60
2022/03/07 12:22:23;;;;;;;;;;;;;;;3.90;47.06;98264.31;4915861;29;20389;-59
2022/03/07 12:24:48;;;;;;;;;;;;;;;3.99;46.88;98270.84;4915190;29;19927;-60
2022/03/07 12:27:14;;;;;;;;;;;;;;;3.83;47.36;98267.03;4916466;29;19962;-59
2022/03/07 12:29:40;;;;;;;;;;;;;;;3.88;46.96;98267.16;4916274;29;19945;-60
2022/03/07 12:32:09;;;;;;;;;;;;;;;3.83;47.20;98267.03;4915071;29;19935;-60
2022/03/07 12:34:35;;;;;;;;;;;;;;;3.79;47.08;98269.28;4915017;29;19926;-59
2022/03/07 12:37:03;;;;;;;;;;;;;;;3.76;47.34;98266.28;4915135;29;19970;-60
2022/03/07 12:39:30;;;;;;;;;;;;;;;3.74;47.23;98263.91;4916376;29;19928;-59
2022/03/07 12:42:00;;;;;;;;;;;;;;;3.70;48.20;98267.19;4915389;29;19931;-60
2022/03/07 12:44:25;;;;;;;;;;;;;;;3.76;47.64;98272.34;4911500;29;19928;-58
2022/03/07 12:46:51;;;;;;;;;;;;;;;3.69;46.99;98269.00;4905973;29;19938;-57
2022/03/07 12:49:17;;;;;;;;;;;;;;;3.72;47.30;98265.94;4888543;29;19931;-61
2022/03/07 12:51:43;;;;;;;;;;;;;;;3.52;47.52;98268.00;4890279;29;19931;-62
2022/03/07 12:54:09;;;;;;;;;;;;;;;3.62;47.32;98261.22;4904541;29;20250;-61
2022/03/07 12:56:36;;;;;;;;;;;;;;;3.65;47.70;98265.25;4906206;29;19958;-62